createdAt,value
2023-03-05T00:01:25.753Z,101585.25
2023-03-05T00:06:46.927Z,101596.06
2023-03-05T00:12:07.855Z,101579.94
2023-03-05T00:17:28.307Z,101579.78
2023-03-05T00:22:49.034Z,101572.06
2023-03-05T00:28:09.668Z,101556.75
2023-03-05T00:33:30.185Z,101551.59
2023-03-05T00:38:50.627Z,101558.34
2023-03-05T00:44:11.744Z,101561.75
2023-03-05T00:49:31.976Z,101563.38
2023-03-05T00:54:52.436Z,101556.59
2023-03-05T01:00:14.558Z,101540.31
2023-03-05T01:05:35.901Z,101534.50
2023-03-05T01:10:56.902Z,101517.56
2023-03-05T01:16:17.697Z,101525.09
2023-03-05T01:21:38.893Z,101519.25
2023-03-05T01:26:59.288Z,101509.09
2023-03-05T01:32:20.162Z,101491.94
2023-03-05T01:37:40.771Z,101485.94
2023-03-05T01:43:20.934Z,101481.53
2023-03-05T01:48:44.125Z,101484.97
2023-03-05T01:54:07.949Z,101457.84
2023-03-05T01:59:29.082Z,101468.88
2023-03-05T02:04:54.798Z,101468.94
2023-03-05T02:10:25.937Z,101452.84
2023-03-05T02:15:47.679Z,101455.44
2023-03-05T02:21:09.554Z,101435.22
2023-03-05T02:26:29.932Z,101438.72
2023-03-05T02:31:51.017Z,101432.03
2023-03-05T02:37:11.622Z,101429.66
2023-03-05T02:42:36.538Z,101430.97
2023-03-05T02:47:59.850Z,101427.78
2023-03-05T02:53:20.460Z,101426.63
2023-03-05T02:58:40.887Z,101419.50
2023-03-05T03:04:01.434Z,101409.19
2023-03-05T03:09:22.201Z,101411.06
2023-03-05T03:14:43.528Z,101397.59
2023-03-05T03:20:06.994Z,101380.00
2023-03-05T03:25:27.993Z,101376.59
2023-03-05T03:30:48.346Z,101366.81
2023-03-05T03:36:09.813Z,101362.72
2023-03-05T03:41:30.152Z,101368.03
2023-03-05T03:46:51.826Z,101358.03
2023-03-05T03:52:12.562Z,101350.31
2023-03-05T03:57:35.961Z,101346.16
2023-03-05T04:02:56.993Z,101349.75
2023-03-05T04:08:17.513Z,101337.97
2023-03-05T04:13:38.146Z,101360.00
2023-03-05T04:18:59.546Z,101359.91
2023-03-05T04:24:20.288Z,101338.66
2023-03-05T04:29:40.905Z,101340.63
2023-03-05T04:35:01.211Z,101336.41
2023-03-05T04:40:21.752Z,101339.31
2023-03-05T04:45:43.609Z,101325.06
2023-03-05T04:51:04.450Z,101316.63
2023-03-05T04:56:24.728Z,101309.91
2023-03-05T05:01:45.481Z,101304.94
2023-03-05T05:07:07.590Z,101308.06
2023-03-05T05:12:29.676Z,101309.72
2023-03-05T05:17:50.438Z,101310.88
2023-03-05T05:23:10.801Z,101331.31
2023-03-05T05:28:32.194Z,101315.94
2023-03-05T05:33:53.941Z,101299.78
2023-03-05T05:39:14.786Z,101285.31
2023-03-05T05:44:35.360Z,101283.63
2023-03-05T05:49:56.177Z,101276.81
2023-03-05T05:55:18.840Z,101276.91
2023-03-05T06:00:39.675Z,101292.75
2023-03-05T06:05:59.967Z,101308.50
2023-03-05T06:11:21.009Z,101311.63
2023-03-05T06:16:42.137Z,101301.34
2023-03-05T06:22:03.024Z,101308.63
2023-03-05T06:27:23.714Z,101295.78
2023-03-05T06:32:44.329Z,101328.66
2023-03-05T06:38:04.837Z,101308.31
2023-03-05T06:43:25.647Z,101293.59
2023-03-05T06:48:47.063Z,101280.13
2023-03-05T06:54:11.219Z,101291.16
2023-03-05T06:59:31.989Z,101285.97
2023-03-05T07:04:58.586Z,101291.78
2023-03-05T07:10:19.412Z,101285.84
2023-03-05T07:15:40.969Z,101270.78
2023-03-05T07:21:03.562Z,101270.34
2023-03-05T07:26:24.753Z,101266.06
2023-03-05T07:31:45.276Z,101271.94
2023-03-05T07:37:05.957Z,101274.63
2023-03-05T07:42:26.761Z,101270.09
2023-03-05T07:48:04.249Z,101278.47
2023-03-05T07:53:25.555Z,101263.31
2023-03-05T07:58:46.174Z,101267.84
2023-03-05T08:04:11.015Z,101259.63
2023-03-05T08:09:31.473Z,101255.69
2023-03-05T08:14:52.173Z,101237.53
2023-03-05T08:20:16.127Z,101234.50
2023-03-05T08:25:42.928Z,101236.41
2023-03-05T08:31:11.104Z,101219.34
2023-03-05T08:36:32.148Z,101220.31
2023-03-05T08:41:52.720Z,101220.41
2023-03-05T08:47:13.286Z,101214.44
2023-03-05T08:52:35.081Z,101221.38
2023-03-05T08:57:58.258Z,101206.25
2023-03-05T09:03:19.505Z,101207.84
2023-03-05T09:08:42.335Z,101204.66
2023-03-05T09:14:09.596Z,101198.06
2023-03-05T09:19:30.196Z,101198.97
2023-03-05T09:24:58.272Z,101187.31
2023-03-05T09:30:19.524Z,101201.94
2023-03-05T09:35:40.009Z,101185.09
2023-03-05T09:41:15.531Z,101186.88
2023-03-05T09:46:53.685Z,101189.44
2023-03-05T09:52:20.642Z,101169.91
2023-03-05T09:57:46.841Z,101172.47
2023-03-05T10:03:18.142Z,101175.00
2023-03-05T10:08:57.473Z,101162.25
2023-03-05T10:14:34.294Z,101156.19
2023-03-05T10:20:04.291Z,101165.41
2023-03-05T10:25:54.629Z,101144.03
2023-03-05T10:31:54.012Z,101144.38
2023-03-05T10:37:47.075Z,101148.00
2023-03-05T10:43:21.942Z,101145.44
2023-03-05T10:48:50.077Z,101139.81
2023-03-05T10:54:24.377Z,101114.94
2023-03-05T10:59:55.237Z,101109.84
2023-03-05T11:05:46.014Z,101112.38
2023-03-05T11:11:19.657Z,101118.59
2023-03-05T11:16:48.431Z,101099.44
2023-03-05T11:22:21.049Z,101104.88
2023-03-05T11:27:56.173Z,101111.50
2023-03-05T11:33:22.522Z,101114.91
2023-03-05T11:38:52.003Z,101108.28
2023-03-05T11:44:17.555Z,101107.06
2023-03-05T11:49:41.723Z,101104.81
2023-03-05T11:55:05.518Z,101086.47
2023-03-05T12:00:29.782Z,101089.03
2023-03-05T12:05:53.124Z,101086.47
2023-03-05T12:11:18.995Z,101083.91
2023-03-05T12:16:45.272Z,101068.56
2023-03-05T12:22:17.691Z,101057.91
2023-03-05T12:27:40.043Z,101054.69
2023-03-05T12:33:03.289Z,101033.47
2023-03-05T12:38:32.018Z,101030.38
2023-03-05T12:44:07.349Z,101019.94
2023-03-05T12:49:29.324Z,101012.59
2023-03-05T12:55:24.240Z,101014.78
2023-03-05T13:00:49.517Z,101009.91
2023-03-05T13:06:24.476Z,101004.44
2023-03-05T13:11:49.069Z,101005.72
2023-03-05T13:17:33.949Z,101004.00
2023-03-05T13:23:18.412Z,101000.38
2023-03-05T13:28:40.088Z,101000.66
2023-03-05T13:34:16.144Z,100980.41
2023-03-05T13:40:20.422Z,100967.53
2023-03-05T13:45:41.317Z,100960.88
2023-03-05T13:51:06.998Z,100958.81
2023-03-05T13:56:27.253Z,100951.16
2023-03-05T14:01:49.345Z,100935.28
2023-03-05T14:07:31.979Z,100929.34
2023-03-05T14:12:52.388Z,100923.50
2023-03-05T14:18:12.690Z,100930.00
2023-03-05T14:23:39.926Z,100917.13
2023-03-05T14:29:14.560Z,100907.19
2023-03-05T14:34:38.773Z,100905.84
2023-03-05T14:40:05.488Z,100906.28
2023-03-05T14:45:27.788Z,100899.03
2023-03-05T14:50:56.895Z,100895.66
2023-03-05T14:56:23.732Z,100884.84
2023-03-05T15:01:45.066Z,100874.66
2023-03-05T15:07:08.250Z,100860.31
2023-03-05T15:12:28.729Z,100855.38
2023-03-05T15:17:55.054Z,100848.63
2023-03-05T15:23:15.831Z,100851.22
2023-03-05T15:28:38.413Z,100844.50
2023-03-05T15:33:59.203Z,100842.00
2023-03-05T15:39:19.774Z,100835.19
2023-03-05T15:44:40.444Z,100824.16
2023-03-05T15:50:01.502Z,100825.06
2023-03-05T15:55:22.540Z,100810.59
2023-03-05T16:00:44.254Z,100806.38
2023-03-05T16:06:05.507Z,100797.91
2023-03-05T16:11:27.052Z,100797.91
2023-03-05T16:16:48.292Z,100780.94
2023-03-05T16:22:08.678Z,100773.31
2023-03-05T16:27:29.548Z,100783.47
2023-03-05T16:32:51.772Z,100773.28
2023-03-05T16:38:14.355Z,100775.81
2023-03-05T16:43:35.100Z,100770.69
2023-03-05T16:48:55.885Z,100759.66
2023-03-05T16:54:16.761Z,100754.59
2023-03-05T16:59:37.697Z,100751.22
2023-03-05T17:04:58.460Z,100747.84
2023-03-05T17:10:19.515Z,100752.91
2023-03-05T17:15:40.148Z,100743.59
2023-03-05T17:21:02.394Z,100746.13
2023-03-05T17:26:22.983Z,100745.28
2023-03-05T17:31:43.747Z,100739.28
2023-03-05T17:37:05.590Z,100729.94
2023-03-05T17:42:26.704Z,100733.34
2023-03-05T17:47:47.555Z,100731.59
2023-03-05T17:53:09.587Z,100732.38
2023-03-05T17:58:30.152Z,100728.13
2023-03-05T18:03:51.180Z,100725.56
2023-03-05T18:09:12.033Z,100725.47
2023-03-05T18:14:32.705Z,100722.84
2023-03-05T18:19:53.655Z,100710.09
2023-03-05T18:25:15.118Z,100707.56
2023-03-05T18:30:36.383Z,100699.91
2023-03-05T18:35:57.475Z,100697.31
2023-03-05T18:41:21.408Z,100699.00
2023-03-05T18:46:42.573Z,100684.63
2023-03-05T18:52:03.706Z,100691.38
2023-03-05T18:57:24.462Z,100676.19
2023-03-05T19:02:45.023Z,100670.28
2023-03-05T19:08:07.889Z,100666.09
2023-03-05T19:13:48.861Z,100666.06
2023-03-05T19:19:20.481Z,100663.63
2023-03-05T19:24:41.302Z,100661.13
2023-03-05T19:30:02.153Z,100655.25
2023-03-05T19:35:24.225Z,100652.78
2023-03-05T19:40:44.674Z,100656.97
2023-03-05T19:46:10.933Z,100642.56
2023-03-05T19:51:31.798Z,100647.72
2023-03-05T19:56:55.694Z,100640.09
2023-03-05T20:02:19.377Z,100624.06
2023-03-05T20:07:40.158Z,100631.63
2023-03-05T20:13:04.214Z,100622.34
2023-03-05T20:18:24.906Z,100619.75
2023-03-05T20:23:45.688Z,100620.56
2023-03-05T20:29:07.425Z,100628.16
2023-03-05T20:34:27.798Z,100612.97
2023-03-05T20:39:51.025Z,100608.66
2023-03-05T20:45:12.088Z,100612.81
2023-03-05T20:50:35.750Z,100594.16
2023-03-05T20:55:56.380Z,100595.81
2023-03-05T21:01:16.889Z,100598.34
2023-03-05T21:06:38.641Z,100594.91
2023-03-05T21:12:00.384Z,100583.88
2023-03-05T21:17:21.063Z,100579.59
2023-03-05T21:22:41.989Z,100577.84
2023-03-05T21:28:07.487Z,100566.81
2023-03-05T21:33:29.940Z,100565.09
2023-03-05T21:38:51.757Z,100565.06
2023-03-05T21:44:17.425Z,100553.25
2023-03-05T21:49:38.086Z,100552.38
2023-03-05T21:54:58.545Z,100543.09
2023-03-05T22:00:22.593Z,100532.09
2023-03-05T22:05:43.809Z,100532.09
2023-03-05T22:11:22.597Z,100526.19
2023-03-05T22:16:43.336Z,100519.34
2023-03-05T22:22:03.814Z,100521.88
2023-03-05T22:27:24.565Z,100514.31
2023-03-05T22:32:45.341Z,100514.31
2023-03-05T22:38:06.953Z,100500.00
2023-03-05T22:43:27.405Z,100500.00
2023-03-05T22:48:49.417Z,100480.59
2023-03-05T22:54:09.952Z,100477.25
2023-03-05T22:59:30.361Z,100477.25
2023-03-05T23:04:57.792Z,100463.78
2023-03-05T23:10:20.976Z,100456.97
2023-03-05T23:15:42.517Z,100459.50
2023-03-05T23:21:03.402Z,100451.97
2023-03-05T23:26:24.657Z,100465.53
2023-03-05T23:31:44.909Z,100453.69
2023-03-05T23:37:06.509Z,100439.28
2023-03-05T23:42:26.981Z,100444.28
2023-03-05T23:47:48.516Z,100447.63
2023-03-05T23:53:09.981Z,100451.91
2023-03-05T23:58:30.659Z,100455.28
